createdAt,value
2018-04-30T00:02:05.521Z,70.34
2018-04-30T00:04:31.368Z,71.15
2018-04-30T00:06:57.204Z,72.33
2018-04-30T00:09:23.034Z,71.97
2018-04-30T00:11:48.870Z,72.31
2018-04-30T00:14:14.733Z,72.48
2018-04-30T00:16:40.569Z,72.85
2018-04-30T00:19:06.413Z,73.10
2018-04-30T00:21:32.267Z,73.67
2018-04-30T00:23:58.111Z,73.85
2018-04-30T00:26:23.971Z,74.38
2018-04-30T00:28:49.819Z,74.47
2018-04-30T00:31:15.671Z,75.25
2018-04-30T00:33:41.589Z,75.38
2018-04-30T00:36:07.400Z,75.82
2018-04-30T00:38:33.242Z,75.80
2018-04-30T00:40:59.061Z,76.43
2018-04-30T00:43:24.928Z,76.50
2018-04-30T00:45:50.776Z,76.53
2018-04-30T00:48:16.633Z,77.05
2018-04-30T00:50:42.482Z,77.42
2018-04-30T00:53:08.311Z,78.11
2018-04-30T00:55:34.137Z,78.03
2018-04-30T00:57:59.958Z,78.36
2018-04-30T01:00:25.819Z,78.55
2018-04-30T01:02:51.649Z,79.09
2018-04-30T01:05:17.520Z,79.42
2018-04-30T01:07:43.382Z,79.09
2018-04-30T01:10:09.257Z,79.02
2018-04-30T01:12:35.113Z,79.07
2018-04-30T01:15:00.939Z,78.43
2018-04-30T01:17:26.808Z,78.99
2018-04-30T01:19:52.669Z,78.79
2018-04-30T01:22:18.504Z,78.92
2018-04-30T01:24:44.380Z,78.52
2018-04-30T01:27:10.271Z,78.70
2018-04-30T01:29:36.132Z,78.40
2018-04-30T01:32:01.993Z,79.22
2018-04-30T01:34:27.841Z,78.57
2018-04-30T01:36:53.690Z,78.16
2018-04-30T01:39:19.533Z,77.96
2018-04-30T01:41:45.406Z,78.15
2018-04-30T01:44:11.286Z,78.24
2018-04-30T01:46:37.147Z,78.13
2018-04-30T01:49:03.015Z,77.99
2018-04-30T01:51:28.866Z,77.90
2018-04-30T01:53:54.747Z,78.08
2018-04-30T01:56:20.610Z,77.43
2018-04-30T01:58:46.484Z,77.42
2018-04-30T02:01:12.366Z,77.33
2018-04-30T02:03:38.226Z,77.47
2018-04-30T02:06:04.071Z,77.42
2018-04-30T02:08:29.914Z,77.34
2018-04-30T02:10:55.771Z,77.14
2018-04-30T02:13:21.636Z,77.03
2018-04-30T02:15:47.465Z,76.95
2018-04-30T02:18:13.324Z,76.99
2018-04-30T02:20:39.176Z,77.72
2018-04-30T02:23:05.013Z,77.67
2018-04-30T02:25:30.874Z,78.14
2018-04-30T02:27:56.717Z,78.10
2018-04-30T02:30:22.569Z,78.18
2018-04-30T02:32:48.444Z,77.80
2018-04-30T02:35:14.287Z,77.78
2018-04-30T02:37:40.164Z,78.05
2018-04-30T02:40:06.059Z,78.21
2018-04-30T02:42:31.894Z,78.21
2018-04-30T02:44:57.749Z,78.67
2018-04-30T02:47:23.601Z,78.39
2018-04-30T02:49:49.454Z,78.19
2018-04-30T02:52:15.318Z,78.48
2018-04-30T02:54:41.225Z,78.42
2018-04-30T02:57:07.087Z,78.31
2018-04-30T02:59:32.965Z,78.75
2018-04-30T03:01:58.798Z,78.46
2018-04-30T03:04:24.636Z,78.70
2018-04-30T03:06:50.490Z,78.59
2018-04-30T03:09:16.331Z,78.54
2018-04-30T03:11:42.191Z,78.48
2018-04-30T03:14:08.026Z,78.75
2018-04-30T03:16:33.871Z,78.69
2018-04-30T03:18:59.710Z,78.47
2018-04-30T03:21:25.555Z,78.50
2018-04-30T03:23:51.399Z,78.35
2018-04-30T03:26:17.254Z,78.23
2018-04-30T03:28:43.099Z,78.17
2018-04-30T03:31:08.975Z,78.23
2018-04-30T03:33:34.831Z,78.30
2018-04-30T03:36:00.676Z,78.22
2018-04-30T03:38:26.537Z,78.29
2018-04-30T03:40:52.376Z,78.84
2018-04-30T03:43:18.259Z,78.82
2018-04-30T03:45:44.081Z,78.58
2018-04-30T03:48:09.925Z,78.82
2018-04-30T03:50:35.782Z,78.92
2018-04-30T03:53:01.633Z,78.76
2018-04-30T03:55:27.492Z,78.61
2018-04-30T03:57:53.358Z,78.62
2018-04-30T04:00:31.818Z,78.80
2018-04-30T04:03:09.917Z,78.70
2018-04-30T04:08:34.807Z,79.14
2018-04-30T04:11:00.641Z,79.12
2018-04-30T04:13:27.555Z,79.47
2018-04-30T04:15:53.423Z,79.36
2018-04-30T04:18:19.272Z,81.21
2018-04-30T04:20:45.135Z,83.21
2018-04-30T04:23:10.993Z,82.83
2018-04-30T04:25:36.867Z,84.30
2018-04-30T04:28:02.735Z,85.53
2018-04-30T04:30:28.586Z,85.67
2018-04-30T04:32:54.429Z,86.02
2018-04-30T04:35:20.269Z,86.95
2018-04-30T04:37:46.114Z,86.76
2018-04-30T04:40:11.989Z,87.18
2018-04-30T04:42:37.826Z,87.08
2018-04-30T04:45:03.702Z,86.59
2018-04-30T04:47:29.580Z,85.96
2018-04-30T04:49:55.457Z,86.47
2018-04-30T04:52:21.298Z,86.22
2018-04-30T04:54:47.147Z,85.97
2018-04-30T04:57:12.999Z,86.33
2018-04-30T04:59:38.852Z,85.94
2018-04-30T05:02:04.708Z,86.15
2018-04-30T05:04:30.545Z,85.46
2018-04-30T05:06:56.411Z,85.62
2018-04-30T05:09:22.230Z,85.73
2018-04-30T05:11:48.077Z,85.47
2018-04-30T05:14:13.937Z,85.02
2018-04-30T05:16:39.792Z,84.93
2018-04-30T05:19:05.675Z,84.63
2018-04-30T05:21:31.512Z,83.95
2018-04-30T05:23:57.396Z,83.73
2018-04-30T05:26:23.236Z,83.84
2018-04-30T05:28:49.081Z,83.94
2018-04-30T05:31:14.928Z,84.02
2018-04-30T05:33:40.795Z,83.82
2018-04-30T05:36:06.639Z,83.12
2018-04-30T05:38:32.494Z,82.88
2018-04-30T05:40:58.359Z,82.67
2018-04-30T05:43:24.193Z,82.49
2018-04-30T05:45:50.057Z,82.41
2018-04-30T05:48:15.901Z,81.89
2018-04-30T05:50:41.737Z,81.73
2018-04-30T05:53:07.626Z,81.75
2018-04-30T05:55:33.493Z,81.13
2018-04-30T05:57:59.330Z,81.15
2018-04-30T06:00:25.748Z,81.12
2018-04-30T06:02:51.605Z,80.57
2018-04-30T06:05:17.457Z,80.99
2018-04-30T06:07:43.320Z,81.16
2018-04-30T06:10:09.179Z,81.29
2018-04-30T06:12:35.031Z,80.23
2018-04-30T06:15:00.885Z,80.19
2018-04-30T06:17:26.805Z,80.76
2018-04-30T06:19:52.587Z,80.09
2018-04-30T06:22:18.450Z,79.80
2018-04-30T06:24:44.307Z,80.46
2018-04-30T06:27:10.168Z,80.81
2018-04-30T06:29:36.006Z,80.46
2018-04-30T06:32:01.856Z,79.89
2018-04-30T06:34:27.692Z,79.69
2018-04-30T06:36:53.543Z,79.52
2018-04-30T06:39:19.410Z,78.97
2018-04-30T06:41:45.258Z,78.03
2018-04-30T06:44:11.111Z,78.40
2018-04-30T06:46:36.955Z,77.82
2018-04-30T06:49:02.841Z,78.44
2018-04-30T06:51:28.687Z,77.97
2018-04-30T06:53:54.549Z,77.73
2018-04-30T06:56:20.391Z,77.18
2018-04-30T06:58:46.256Z,77.42
2018-04-30T07:01:12.135Z,77.42
2018-04-30T07:03:37.999Z,77.13
2018-04-30T07:06:03.860Z,76.32
2018-04-30T07:08:29.715Z,75.90
2018-04-30T07:10:55.592Z,76.13
2018-04-30T07:13:21.460Z,75.59
2018-04-30T07:15:47.322Z,75.49
2018-04-30T07:18:13.172Z,75.77
2018-04-30T07:20:39.034Z,75.60
2018-04-30T07:23:04.894Z,75.94
2018-04-30T07:25:30.757Z,76.01
2018-04-30T07:27:56.643Z,76.44
2018-04-30T07:30:22.535Z,76.45
2018-04-30T07:32:48.423Z,76.76
2018-04-30T07:35:14.287Z,76.48
2018-04-30T07:37:40.145Z,76.13
2018-04-30T07:40:06.025Z,76.11
2018-04-30T07:42:31.886Z,75.90
2018-04-30T07:44:57.774Z,75.08
2018-04-30T07:47:23.630Z,74.39
2018-04-30T07:49:49.489Z,74.13
2018-04-30T07:52:15.345Z,73.81
2018-04-30T07:54:41.276Z,73.79
2018-04-30T07:57:07.168Z,73.95
2018-04-30T07:59:33.012Z,73.65
2018-04-30T08:01:58.854Z,73.31
2018-04-30T08:04:24.718Z,72.97
2018-04-30T08:06:50.616Z,73.20
2018-04-30T08:09:16.542Z,72.92
2018-04-30T08:11:42.466Z,72.77
2018-04-30T08:14:08.325Z,72.65
2018-04-30T08:16:35.139Z,72.49
2018-04-30T08:19:01.131Z,73.02
2018-04-30T08:21:27.038Z,72.72
2018-04-30T08:23:52.820Z,72.28
2018-04-30T08:26:18.657Z,71.92
2018-04-30T08:28:44.533Z,71.97
2018-04-30T08:31:10.492Z,71.92
2018-04-30T08:33:36.324Z,72.06
2018-04-30T08:36:02.184Z,72.09
2018-04-30T08:38:28.043Z,71.89
2018-04-30T08:40:53.883Z,69.86
2018-04-30T08:43:19.729Z,68.34
2018-04-30T08:45:45.604Z,68.12
2018-04-30T08:48:11.447Z,68.33
2018-04-30T08:50:37.304Z,67.59
2018-04-30T08:53:03.198Z,67.48
2018-04-30T08:55:29.059Z,67.64
2018-04-30T08:57:54.924Z,67.31
2018-04-30T09:00:20.821Z,67.18
2018-04-30T09:02:46.682Z,67.17
2018-04-30T09:05:12.534Z,67.03
2018-04-30T09:07:38.395Z,67.33
2018-04-30T09:10:04.219Z,66.58
2018-04-30T09:12:30.737Z,67.10
2018-04-30T09:14:56.570Z,67.08
2018-04-30T09:17:22.427Z,67.22
2018-04-30T09:19:48.274Z,67.41
2018-04-30T09:22:14.125Z,67.59
2018-04-30T09:24:39.990Z,67.77
2018-04-30T09:27:05.844Z,67.44
2018-04-30T09:29:31.704Z,66.47
2018-04-30T09:31:57.559Z,66.06
2018-04-30T09:34:23.419Z,65.86
2018-04-30T09:36:49.269Z,66.23
2018-04-30T09:39:15.098Z,66.28
2018-04-30T09:41:41.011Z,66.90
2018-04-30T09:44:06.850Z,67.09
2018-04-30T09:46:32.677Z,67.08
2018-04-30T09:48:58.769Z,67.32
2018-04-30T09:51:24.601Z,68.09
2018-04-30T09:53:50.441Z,68.45
2018-04-30T09:56:16.284Z,69.47
2018-04-30T09:58:42.122Z,69.70
2018-04-30T10:01:08.014Z,71.92
2018-04-30T10:03:33.887Z,72.86
2018-04-30T10:05:59.753Z,74.24
2018-04-30T10:08:25.603Z,74.38
2018-04-30T10:10:51.464Z,73.73
2018-04-30T10:13:17.386Z,74.16
2018-04-30T10:15:43.217Z,73.43
2018-04-30T10:18:09.089Z,73.10
2018-04-30T10:20:34.969Z,71.43
2018-04-30T10:23:00.935Z,71.25
2018-04-30T10:25:26.716Z,70.74
2018-04-30T10:27:52.573Z,71.10
2018-04-30T10:30:18.423Z,68.17
2018-04-30T10:32:44.287Z,66.39
2018-04-30T10:35:10.126Z,65.79
2018-04-30T10:37:36.126Z,65.74
2018-04-30T10:40:02.004Z,62.98
2018-04-30T10:42:27.867Z,63.18
2018-04-30T10:44:53.726Z,63.73
2018-04-30T10:47:19.584Z,62.94
2018-04-30T10:49:45.429Z,62.47
2018-04-30T10:52:11.293Z,62.76
2018-04-30T10:54:37.145Z,63.09
2018-04-30T10:57:03.015Z,62.04
2018-04-30T10:59:28.929Z,61.98
2018-04-30T11:01:54.805Z,62.18
2018-04-30T11:04:20.666Z,62.17
2018-04-30T11:06:46.518Z,62.47
2018-04-30T11:09:12.382Z,62.58
2018-04-30T11:11:38.314Z,62.92
2018-04-30T11:14:04.183Z,63.17
2018-04-30T11:16:30.074Z,63.42
2018-04-30T11:18:55.946Z,63.96
2018-04-30T11:21:21.827Z,63.64
2018-04-30T11:23:47.695Z,64.69
2018-04-30T11:26:13.542Z,65.58
2018-04-30T11:28:39.419Z,68.76
2018-04-30T11:31:05.312Z,70.64
2018-04-30T11:33:31.218Z,72.42
2018-04-30T11:35:57.070Z,73.40
2018-04-30T11:38:22.947Z,73.80
2018-04-30T11:40:48.806Z,73.24
2018-04-30T11:43:14.695Z,73.03
2018-04-30T11:45:40.573Z,75.31
2018-04-30T11:48:06.449Z,72.82
2018-04-30T11:50:32.329Z,71.85
2018-04-30T11:52:58.222Z,70.48
2018-04-30T11:55:24.099Z,70.20
2018-04-30T11:57:49.971Z,69.54
2018-04-30T12:00:15.871Z,69.43
2018-04-30T12:02:41.730Z,69.38
2018-04-30T12:05:07.581Z,68.22
2018-04-30T12:07:33.466Z,67.00
2018-04-30T12:09:59.314Z,65.89
2018-04-30T12:12:25.171Z,64.18
2018-04-30T12:14:51.017Z,64.39
2018-04-30T12:17:16.889Z,63.98
2018-04-30T12:19:42.746Z,62.48
2018-04-30T12:22:08.700Z,61.68
2018-04-30T12:24:34.491Z,61.79
2018-04-30T12:27:00.395Z,62.32
2018-04-30T12:29:26.265Z,62.21
2018-04-30T12:31:52.155Z,63.80
2018-04-30T12:34:18.321Z,62.85
2018-04-30T12:36:44.375Z,62.82
2018-04-30T12:39:10.227Z,63.02
2018-04-30T12:41:36.063Z,62.49
2018-04-30T12:44:02.009Z,62.60
2018-04-30T12:46:27.785Z,62.51
2018-04-30T12:48:53.675Z,62.65
2018-04-30T12:51:19.555Z,62.48
2018-04-30T12:53:45.428Z,62.61
2018-04-30T12:56:11.391Z,62.68
2018-04-30T12:58:37.242Z,62.56
2018-04-30T13:01:03.123Z,62.21
2018-04-30T13:03:29.005Z,59.72
2018-04-30T13:05:55.056Z,58.30
2018-04-30T13:08:20.905Z,56.79
2018-04-30T13:10:46.800Z,55.31
2018-04-30T13:13:12.654Z,55.85
2018-04-30T13:15:38.520Z,54.09
2018-04-30T13:18:04.365Z,53.72
2018-04-30T13:20:30.348Z,54.42
2018-04-30T13:22:56.208Z,54.62
2018-04-30T13:25:22.076Z,54.71
2018-04-30T13:27:47.971Z,55.46
2018-04-30T13:30:13.831Z,56.21
2018-04-30T13:32:39.675Z,54.68
2018-04-30T13:35:05.505Z,55.59
2018-04-30T13:37:31.690Z,53.87
2018-04-30T13:39:57.579Z,53.33
2018-04-30T13:42:23.404Z,53.78
2018-04-30T13:44:49.308Z,52.11
2018-04-30T13:47:15.174Z,50.62
2018-04-30T13:49:41.034Z,48.95
2018-04-30T13:52:06.928Z,48.37
2018-04-30T13:54:32.799Z,46.56
2018-04-30T13:56:58.668Z,44.61
2018-04-30T13:59:24.549Z,43.49
2018-04-30T14:01:50.569Z,43.84
2018-04-30T14:04:16.353Z,43.78
2018-04-30T14:06:42.216Z,42.31
2018-04-30T14:09:08.091Z,42.65
2018-04-30T14:11:33.946Z,44.17
2018-04-30T14:13:59.769Z,44.90
2018-04-30T14:16:26.452Z,44.41
2018-04-30T14:18:52.297Z,42.98
2018-04-30T14:21:18.163Z,43.47
2018-04-30T14:23:44.019Z,43.84
2018-04-30T14:26:09.867Z,45.00
2018-04-30T14:28:35.699Z,44.66
2018-04-30T14:31:01.555Z,45.69
2018-04-30T14:33:27.392Z,46.37
2018-04-30T14:35:53.260Z,47.38
2018-04-30T14:38:19.206Z,47.46
2018-04-30T14:40:45.004Z,45.03
2018-04-30T14:43:10.917Z,43.86
2018-04-30T14:45:36.757Z,43.36
2018-04-30T14:48:02.629Z,44.69
2018-04-30T14:50:28.503Z,43.61
2018-04-30T14:52:54.405Z,43.15
2018-04-30T14:55:20.274Z,41.20
2018-04-30T14:57:46.154Z,40.66
2018-04-30T15:00:12.057Z,39.87
2018-04-30T15:02:37.890Z,39.34
2018-04-30T15:05:03.869Z,40.53
2018-04-30T15:07:29.698Z,41.52
2018-04-30T15:09:55.550Z,39.97
2018-04-30T15:12:22.091Z,39.69
2018-04-30T15:14:48.001Z,38.02
2018-04-30T15:17:13.866Z,38.31
2018-04-30T15:19:39.762Z,38.36
2018-04-30T15:22:05.584Z,38.21
2018-04-30T15:24:31.447Z,39.52
2018-04-30T15:26:57.278Z,38.34
2018-04-30T15:29:23.149Z,38.12
2018-04-30T15:31:48.993Z,37.53
2018-04-30T15:34:14.875Z,37.02
2018-04-30T15:36:40.728Z,37.02
2018-04-30T15:39:06.596Z,37.00
2018-04-30T15:41:32.444Z,36.18
2018-04-30T15:43:58.304Z,35.15
2018-04-30T15:46:24.146Z,35.69
2018-04-30T15:48:50.039Z,35.80
2018-04-30T15:51:15.877Z,34.83
2018-04-30T15:53:41.759Z,34.01
2018-04-30T15:56:07.636Z,33.79
2018-04-30T15:58:33.486Z,33.12
2018-04-30T16:00:59.372Z,32.56
2018-04-30T16:03:25.229Z,31.66
2018-04-30T16:05:51.102Z,31.16
2018-04-30T16:08:16.956Z,31.55
2018-04-30T16:10:42.828Z,31.00
2018-04-30T16:13:08.763Z,29.99
2018-04-30T16:15:34.657Z,30.24
2018-04-30T16:18:00.507Z,29.13
2018-04-30T16:20:26.459Z,28.69
2018-04-30T16:22:52.263Z,28.54
2018-04-30T16:25:18.090Z,28.39
2018-04-30T16:27:43.972Z,28.28
2018-04-30T16:30:10.903Z,28.59
2018-04-30T16:32:36.780Z,28.30
2018-04-30T16:35:02.663Z,28.39
2018-04-30T16:37:28.554Z,28.05
2018-04-30T16:39:54.450Z,28.30
2018-04-30T16:42:20.302Z,28.96
2018-04-30T16:44:46.165Z,28.62
2018-04-30T16:47:12.039Z,28.76
2018-04-30T16:49:37.907Z,29.78
2018-04-30T16:52:03.759Z,32.59
2018-04-30T16:54:29.612Z,34.14
2018-04-30T16:56:55.474Z,35.23
2018-04-30T16:59:21.374Z,35.70
2018-04-30T17:01:47.239Z,36.08
2018-04-30T17:04:13.082Z,37.08
2018-04-30T17:06:38.979Z,37.64
2018-04-30T17:09:04.892Z,37.66
2018-04-30T17:11:30.777Z,37.28
2018-04-30T17:13:56.619Z,37.64
2018-04-30T17:16:22.486Z,37.74
2018-04-30T17:18:48.339Z,36.25
2018-04-30T17:21:14.229Z,35.09
2018-04-30T17:23:40.100Z,35.39
2018-04-30T17:26:05.970Z,35.18
2018-04-30T17:28:31.819Z,36.62
2018-04-30T17:30:57.668Z,37.49
2018-04-30T17:33:23.556Z,36.81
2018-04-30T17:35:49.424Z,37.30
2018-04-30T17:38:15.322Z,38.23
2018-04-30T17:40:41.168Z,38.55
2018-04-30T17:43:07.028Z,38.21
2018-04-30T17:45:32.883Z,38.64
2018-04-30T17:47:58.742Z,38.73
2018-04-30T17:50:24.610Z,39.40
2018-04-30T17:52:50.466Z,39.80
2018-04-30T17:55:16.356Z,39.45
2018-04-30T17:57:42.214Z,39.87
2018-04-30T18:00:08.132Z,39.90
2018-04-30T18:02:34.001Z,40.45
2018-04-30T18:04:59.888Z,39.81
2018-04-30T18:07:25.797Z,40.09
2018-04-30T18:09:52.281Z,39.72
2018-04-30T18:12:18.149Z,40.15
2018-04-30T18:14:44.038Z,40.07
2018-04-30T18:17:09.930Z,40.37
2018-04-30T18:19:35.953Z,40.07
2018-04-30T18:22:01.853Z,40.49
2018-04-30T18:24:27.728Z,40.01
2018-04-30T18:26:53.632Z,40.15
2018-04-30T18:29:19.506Z,40.25
2018-04-30T18:31:45.385Z,39.99
2018-04-30T18:34:11.242Z,40.57
2018-04-30T18:36:38.123Z,40.41
2018-04-30T18:39:04.905Z,40.77
2018-04-30T18:41:30.746Z,40.64
2018-04-30T18:43:56.639Z,40.90
2018-04-30T18:46:22.509Z,40.92
2018-04-30T18:48:48.483Z,41.09
2018-04-30T18:51:14.349Z,41.24
2018-04-30T18:53:40.224Z,41.62
2018-04-30T18:56:06.167Z,42.01
2018-04-30T18:58:32.046Z,41.94
2018-04-30T19:00:58.253Z,42.37
2018-04-30T19:03:24.151Z,42.37
2018-04-30T19:05:50.036Z,42.25
2018-04-30T19:08:15.919Z,42.54
2018-04-30T19:10:41.939Z,42.73
2018-04-30T19:13:07.858Z,42.86
2018-04-30T19:15:33.724Z,43.96
2018-04-30T19:17:59.687Z,43.05
2018-04-30T19:20:25.525Z,43.18
2018-04-30T19:22:51.445Z,43.40
2018-04-30T19:25:17.300Z,43.55
2018-04-30T19:27:43.195Z,43.75
2018-04-30T19:30:10.075Z,44.28
2018-04-30T19:32:35.991Z,44.96
2018-04-30T19:35:01.878Z,44.77
2018-04-30T19:37:28.683Z,44.64
2018-04-30T19:39:54.636Z,44.93
2018-04-30T19:42:20.521Z,44.93
2018-04-30T19:44:46.456Z,45.32
2018-04-30T19:47:12.365Z,45.30
2018-04-30T19:49:39.229Z,45.98
2018-04-30T19:52:05.119Z,46.26
2018-04-30T19:54:30.993Z,48.09
2018-04-30T19:56:57.693Z,49.87
2018-04-30T19:59:24.267Z,49.22
2018-04-30T20:01:50.171Z,49.32
2018-04-30T20:04:16.053Z,48.78
2018-04-30T20:06:41.914Z,49.86
2018-04-30T20:09:07.890Z,47.96
2018-04-30T20:11:33.814Z,50.52
2018-04-30T20:13:59.713Z,50.14
2018-04-30T20:16:25.587Z,49.15
2018-04-30T20:18:51.511Z,49.87
2018-04-30T20:21:17.425Z,50.01
2018-04-30T20:23:43.906Z,50.52
2018-04-30T20:26:09.852Z,53.76
2018-04-30T20:28:35.755Z,54.06
2018-04-30T20:31:01.687Z,52.75
2018-04-30T20:33:27.678Z,54.32
2018-04-30T20:35:53.617Z,53.81
2018-04-30T20:38:19.481Z,56.88
2018-04-30T20:40:45.385Z,57.31
2018-04-30T20:43:11.282Z,58.00
2018-04-30T20:45:37.200Z,58.13
2018-04-30T20:48:03.244Z,58.98
2018-04-30T20:50:29.162Z,59.90
2018-04-30T20:52:55.021Z,59.96
2018-04-30T20:55:20.909Z,60.07
2018-04-30T20:57:46.769Z,60.94
2018-04-30T21:00:12.778Z,60.68
2018-04-30T21:02:38.643Z,62.58
2018-04-30T21:05:04.513Z,62.66
2018-04-30T21:07:30.424Z,62.15
2018-04-30T21:09:56.336Z,61.89
2018-04-30T21:12:22.214Z,62.84
2018-04-30T21:14:48.080Z,64.30
2018-04-30T21:17:13.991Z,64.97
2018-04-30T21:19:39.875Z,64.37
2018-04-30T21:22:05.761Z,65.35
2018-04-30T21:24:31.692Z,64.05
2018-04-30T21:26:57.494Z,64.36
2018-04-30T21:29:23.349Z,65.09
2018-04-30T21:31:49.227Z,65.63
2018-04-30T21:34:15.113Z,66.07
2018-04-30T21:36:40.991Z,66.13
2018-04-30T21:39:06.873Z,66.17
2018-04-30T21:41:32.727Z,66.10
2018-04-30T21:43:58.592Z,65.90
2018-04-30T21:46:24.425Z,65.16
2018-04-30T21:48:50.285Z,66.22
2018-04-30T21:51:16.131Z,66.26
2018-04-30T21:53:42.001Z,65.71
2018-04-30T21:56:07.871Z,66.53
2018-04-30T21:58:33.752Z,66.19
2018-04-30T22:00:59.679Z,65.90
2018-04-30T22:03:25.544Z,66.39
2018-04-30T22:05:51.408Z,66.46
2018-04-30T22:08:17.350Z,62.90
2018-04-30T22:10:43.187Z,61.21
2018-04-30T22:13:09.038Z,57.99
2018-04-30T22:15:34.912Z,57.68
2018-04-30T22:18:00.773Z,55.38
2018-04-30T22:20:26.677Z,54.70
2018-04-30T22:22:52.537Z,55.72
2018-04-30T22:25:18.388Z,54.60
2018-04-30T22:27:44.241Z,53.69
2018-04-30T22:30:10.121Z,54.62
2018-04-30T22:32:36.174Z,54.33
2018-04-30T22:35:02.020Z,52.93
2018-04-30T22:37:27.887Z,52.19
2018-04-30T22:39:53.755Z,51.83
2018-04-30T22:42:19.611Z,51.58
2018-04-30T22:44:45.444Z,51.51
2018-04-30T22:47:11.981Z,51.66
2018-04-30T22:49:37.833Z,51.90
2018-04-30T22:52:03.716Z,51.97
2018-04-30T22:54:29.560Z,52.49
2018-04-30T22:56:55.385Z,52.97
2018-04-30T22:59:21.239Z,52.83
2018-04-30T23:01:47.085Z,53.29
2018-04-30T23:04:12.960Z,53.69
2018-04-30T23:06:38.789Z,53.71
2018-04-30T23:09:04.661Z,53.89
2018-04-30T23:11:30.506Z,53.63
2018-04-30T23:13:56.351Z,53.55
2018-04-30T23:16:22.233Z,53.58
2018-04-30T23:18:48.079Z,53.44
2018-04-30T23:21:13.947Z,53.76
2018-04-30T23:23:39.789Z,53.93
2018-04-30T23:26:05.660Z,54.04
2018-04-30T23:28:31.520Z,53.50
2018-04-30T23:30:57.382Z,52.88
2018-04-30T23:33:23.235Z,52.82
2018-04-30T23:35:49.074Z,52.57
2018-04-30T23:38:14.940Z,52.89
2018-04-30T23:40:40.779Z,52.58
2018-04-30T23:43:06.637Z,51.95
2018-04-30T23:45:32.468Z,51.73
2018-04-30T23:47:58.330Z,51.64
2018-04-30T23:50:24.215Z,51.53
2018-04-30T23:52:50.075Z,51.02
2018-04-30T23:55:15.930Z,50.92
2018-04-30T23:57:41.786Z,51.00
